createdAt,value
2018-05-27T00:00:54.439Z,1018.08
2018-05-27T00:01:54.442Z,1018.06
2018-05-27T00:02:54.449Z,1018.04
2018-05-27T00:03:54.440Z,1018.02
2018-05-27T00:04:54.442Z,1018.00
2018-05-27T00:05:54.442Z,1017.98
2018-05-27T00:06:54.441Z,1017.99
2018-05-27T00:07:54.473Z,1017.99
2018-05-27T00:08:54.440Z,1017.98
2018-05-27T00:09:54.446Z,1017.96
2018-05-27T00:10:54.445Z,1017.95
2018-05-27T00:11:54.444Z,1017.95
2018-05-27T00:12:54.448Z,1017.92
2018-05-27T00:13:54.465Z,1017.91
2018-05-27T00:14:54.445Z,1017.94
2018-05-27T00:15:54.446Z,1017.90
2018-05-27T00:16:54.445Z,1017.92
2018-05-27T00:17:54.447Z,1017.93
2018-05-27T00:18:54.447Z,1017.91
2018-05-27T00:19:54.445Z,1017.93
2018-05-27T00:20:54.445Z,1017.93
2018-05-27T00:21:54.446Z,1017.92
2018-05-27T00:22:54.445Z,1017.90
2018-05-27T00:23:54.443Z,1017.90
2018-05-27T00:24:54.444Z,1017.92
2018-05-27T00:25:54.445Z,1017.88
2018-05-27T00:26:54.446Z,1017.95
2018-05-27T00:27:54.446Z,1017.90
2018-05-27T00:28:54.447Z,1017.94
2018-05-27T00:29:54.449Z,1017.90
2018-05-27T00:30:54.447Z,1017.90
2018-05-27T00:31:54.446Z,1017.91
2018-05-27T00:32:54.448Z,1017.94
2018-05-27T00:33:54.454Z,1017.93
2018-05-27T00:34:54.448Z,1017.97
2018-05-27T00:35:54.450Z,1017.95
2018-05-27T00:36:54.448Z,1017.92
2018-05-27T00:37:54.448Z,1017.94
2018-05-27T00:38:54.449Z,1017.93
2018-05-27T00:39:54.445Z,1017.90
2018-05-27T00:40:54.448Z,1017.89
2018-05-27T00:41:54.447Z,1017.86
2018-05-27T00:42:54.469Z,1017.86
2018-05-27T00:43:54.445Z,1017.85
2018-05-27T00:44:54.446Z,1017.87
2018-05-27T00:45:54.450Z,1017.85
2018-05-27T00:46:54.453Z,1017.81
2018-05-27T00:47:54.443Z,1017.87
2018-05-27T00:48:54.451Z,1017.84
2018-05-27T00:49:54.461Z,1017.83
2018-05-27T00:50:54.452Z,1017.84
2018-05-27T00:51:54.449Z,1017.83
2018-05-27T00:52:54.443Z,1017.84
2018-05-27T00:53:54.448Z,1017.84
2018-05-27T00:54:54.442Z,1017.82
2018-05-27T00:55:54.447Z,1017.81
2018-05-27T00:56:54.444Z,1017.80
2018-05-27T00:57:54.444Z,1017.77
2018-05-27T00:58:54.444Z,1017.79
2018-05-27T00:59:54.443Z,1017.75
2018-05-27T01:00:54.443Z,1017.73
2018-05-27T01:01:54.442Z,1017.78
2018-05-27T01:02:54.443Z,1017.78
2018-05-27T01:03:54.440Z,1017.77
2018-05-27T01:04:54.441Z,1017.81
2018-05-27T01:05:54.443Z,1017.81
2018-05-27T01:06:54.441Z,1017.80
2018-05-27T01:07:54.440Z,1017.82
2018-05-27T01:08:54.437Z,1017.82
2018-05-27T01:09:54.437Z,1017.82
2018-05-27T01:10:54.442Z,1017.84
2018-05-27T01:11:54.436Z,1017.85
2018-05-27T01:12:54.441Z,1017.84
2018-05-27T01:13:54.439Z,1017.81
2018-05-27T01:14:54.437Z,1017.84
2018-05-27T01:15:54.439Z,1017.85
2018-05-27T01:16:54.436Z,1017.85
2018-05-27T01:17:54.440Z,1017.84
2018-05-27T01:18:54.436Z,1017.85
2018-05-27T01:19:54.435Z,1017.85
2018-05-27T01:20:54.435Z,1017.81
2018-05-27T01:21:54.433Z,1017.80
2018-05-27T01:22:54.429Z,1017.79
2018-05-27T01:23:54.430Z,1017.80
2018-05-27T01:24:54.431Z,1017.76
2018-05-27T01:25:54.439Z,1017.76
2018-05-27T01:26:54.436Z,1017.78
2018-05-27T01:27:54.431Z,1017.76
2018-05-27T01:28:54.433Z,1017.76
2018-05-27T01:29:54.433Z,1017.78
2018-05-27T01:30:54.431Z,1017.76
2018-05-27T01:31:54.429Z,1017.73
2018-05-27T01:32:54.431Z,1017.71
2018-05-27T01:33:54.430Z,1017.72
2018-05-27T01:34:54.428Z,1017.72
2018-05-27T01:35:54.426Z,1017.68
2018-05-27T01:36:54.429Z,1017.67
2018-05-27T01:37:54.426Z,1017.67
2018-05-27T01:38:54.427Z,1017.65
2018-05-27T01:39:54.425Z,1017.63
2018-05-27T01:40:54.429Z,1017.64
2018-05-27T01:41:54.425Z,1017.60
2018-05-27T01:42:54.425Z,1017.60
2018-05-27T01:43:54.424Z,1017.62
2018-05-27T01:44:54.421Z,1017.57
2018-05-27T01:45:54.422Z,1017.57
2018-05-27T01:46:54.422Z,1017.60
2018-05-27T01:47:54.421Z,1017.57
2018-05-27T01:48:54.421Z,1017.60
2018-05-27T01:49:54.421Z,1017.57
2018-05-27T01:50:54.417Z,1017.60
2018-05-27T01:51:54.417Z,1017.61
2018-05-27T01:52:54.420Z,1017.62
2018-05-27T01:53:54.419Z,1017.65
2018-05-27T01:54:54.422Z,1017.63
2018-05-27T01:55:54.423Z,1017.64
2018-05-27T01:56:54.420Z,1017.62
2018-05-27T01:57:54.416Z,1017.62
2018-05-27T01:58:54.413Z,1017.57
2018-05-27T01:59:54.415Z,1017.61
2018-05-27T02:00:54.413Z,1017.57
2018-05-27T02:01:54.414Z,1017.56
2018-05-27T02:02:54.412Z,1017.57
2018-05-27T02:03:54.410Z,1017.55
2018-05-27T02:04:54.411Z,1017.60
2018-05-27T02:05:54.409Z,1017.57
2018-05-27T02:06:54.411Z,1017.59
2018-05-27T02:07:54.409Z,1017.61
2018-05-27T02:08:54.409Z,1017.61
2018-05-27T02:09:54.407Z,1017.60
2018-05-27T02:10:54.416Z,1017.64
2018-05-27T02:11:54.408Z,1017.62
2018-05-27T02:12:54.407Z,1017.60
2018-05-27T02:13:54.409Z,1017.63
2018-05-27T02:14:54.406Z,1017.61
2018-05-27T02:15:54.404Z,1017.59
2018-05-27T02:16:54.403Z,1017.57
2018-05-27T02:17:54.404Z,1017.54
2018-05-27T02:18:54.402Z,1017.58
2018-05-27T02:19:54.398Z,1017.57
2018-05-27T02:20:54.401Z,1017.59
2018-05-27T02:21:54.401Z,1017.55
2018-05-27T02:22:54.396Z,1017.51
2018-05-27T02:23:54.399Z,1017.55
2018-05-27T02:24:54.398Z,1017.53
2018-05-27T02:25:54.403Z,1017.50
2018-05-27T02:26:54.397Z,1017.49
2018-05-27T02:27:54.395Z,1017.50
2018-05-27T02:28:54.395Z,1017.49
2018-05-27T02:29:54.396Z,1017.51
2018-05-27T02:30:54.395Z,1017.49
2018-05-27T02:31:54.393Z,1017.54
2018-05-27T02:32:54.392Z,1017.54
2018-05-27T02:33:54.390Z,1017.55
2018-05-27T02:34:54.393Z,1017.53
2018-05-27T02:35:54.393Z,1017.52
2018-05-27T02:36:54.389Z,1017.53
2018-05-27T02:37:54.389Z,1017.53
2018-05-27T02:38:54.388Z,1017.51
2018-05-27T02:39:54.388Z,1017.52
2018-05-27T02:40:54.392Z,1017.49
2018-05-27T02:41:54.388Z,1017.50
2018-05-27T02:42:54.384Z,1017.49
2018-05-27T02:43:54.384Z,1017.49
2018-05-27T02:44:54.382Z,1017.46
2018-05-27T02:45:54.383Z,1017.48
2018-05-27T02:46:54.378Z,1017.47
2018-05-27T02:47:54.380Z,1017.49
2018-05-27T02:48:54.377Z,1017.48
2018-05-27T02:49:54.374Z,1017.52
2018-05-27T02:50:54.384Z,1017.53
2018-05-27T02:51:54.375Z,1017.55
2018-05-27T02:52:54.375Z,1017.55
2018-05-27T02:53:54.371Z,1017.59
2018-05-27T02:54:54.377Z,1017.58
2018-05-27T02:55:54.371Z,1017.57
2018-05-27T02:56:54.369Z,1017.53
2018-05-27T02:57:54.369Z,1017.56
2018-05-27T02:58:54.369Z,1017.54
2018-05-27T02:59:54.366Z,1017.50
2018-05-27T03:00:54.367Z,1017.49
2018-05-27T03:01:54.370Z,1017.48
2018-05-27T03:02:54.367Z,1017.46
2018-05-27T03:03:54.363Z,1017.45
2018-05-27T03:04:54.358Z,1017.45
2018-05-27T03:05:54.366Z,1017.44
2018-05-27T03:06:54.358Z,1017.42
2018-05-27T03:07:54.362Z,1017.43
2018-05-27T03:08:54.360Z,1017.44
2018-05-27T03:09:54.358Z,1017.44
2018-05-27T03:10:54.352Z,1017.42
2018-05-27T03:11:54.354Z,1017.42
2018-05-27T03:12:54.357Z,1017.43
2018-05-27T03:13:54.350Z,1017.44
2018-05-27T03:14:54.352Z,1017.42
2018-05-27T03:15:54.353Z,1017.41
2018-05-27T03:16:54.347Z,1017.43
2018-05-27T03:17:54.347Z,1017.43
2018-05-27T03:18:54.348Z,1017.42
2018-05-27T03:19:54.343Z,1017.41
2018-05-27T03:20:54.345Z,1017.42
2018-05-27T03:21:54.340Z,1017.45
2018-05-27T03:22:54.340Z,1017.42
2018-05-27T03:23:54.339Z,1017.43
2018-05-27T03:24:54.338Z,1017.41
2018-05-27T03:25:54.334Z,1017.41
2018-05-27T03:26:54.333Z,1017.43
2018-05-27T03:27:54.334Z,1017.42
2018-05-27T03:28:54.334Z,1017.43
2018-05-27T03:29:54.331Z,1017.44
2018-05-27T03:30:54.329Z,1017.42
2018-05-27T03:31:54.325Z,1017.44
2018-05-27T03:32:54.322Z,1017.40
2018-05-27T03:33:54.328Z,1017.39
2018-05-27T03:34:54.327Z,1017.44
2018-05-27T03:35:54.322Z,1017.41
2018-05-27T03:36:54.319Z,1017.43
2018-05-27T03:37:54.319Z,1017.47
2018-05-27T03:38:54.317Z,1017.42
2018-05-27T03:39:54.315Z,1017.42
2018-05-27T03:40:54.315Z,1017.44
2018-05-27T03:41:54.316Z,1017.48
2018-05-27T03:42:54.326Z,1017.50
2018-05-27T03:43:54.313Z,1017.44
2018-05-27T03:44:54.307Z,1017.45
2018-05-27T03:45:54.311Z,1017.49
2018-05-27T03:46:54.306Z,1017.50
2018-05-27T03:47:54.305Z,1017.51
2018-05-27T03:48:54.303Z,1017.45
2018-05-27T03:49:54.310Z,1017.50
2018-05-27T03:50:54.298Z,1017.50
2018-05-27T03:51:54.297Z,1017.49
2018-05-27T03:52:54.297Z,1017.50
2018-05-27T03:53:54.297Z,1017.47
2018-05-27T03:54:54.297Z,1017.43
2018-05-27T03:55:54.297Z,1017.42
2018-05-27T03:56:54.300Z,1017.38
2018-05-27T03:57:54.295Z,1017.39
2018-05-27T03:58:54.295Z,1017.38
2018-05-27T03:59:54.292Z,1017.38
2018-05-27T04:00:54.290Z,1017.39
2018-05-27T04:01:54.291Z,1017.35
2018-05-27T04:02:54.288Z,1017.37
2018-05-27T04:03:54.291Z,1017.42
2018-05-27T04:04:54.287Z,1017.42
2018-05-27T04:05:54.289Z,1017.45
2018-05-27T04:06:54.286Z,1017.47
2018-05-27T04:07:54.286Z,1017.45
2018-05-27T04:08:54.285Z,1017.46
2018-05-27T04:09:54.285Z,1017.49
2018-05-27T04:10:54.286Z,1017.45
2018-05-27T04:11:54.284Z,1017.43
2018-05-27T04:12:54.284Z,1017.44
2018-05-27T04:13:54.285Z,1017.47
2018-05-27T04:14:54.283Z,1017.45
2018-05-27T04:15:54.289Z,1017.43
2018-05-27T04:16:54.284Z,1017.47
2018-05-27T04:17:54.279Z,1017.45
2018-05-27T04:18:54.284Z,1017.48
2018-05-27T04:19:54.278Z,1017.47
2018-05-27T04:20:54.280Z,1017.47
2018-05-27T04:21:54.284Z,1017.44
2018-05-27T04:22:54.287Z,1017.45
2018-05-27T04:23:54.277Z,1017.46
2018-05-27T04:24:54.278Z,1017.45
2018-05-27T04:25:54.278Z,1017.46
2018-05-27T04:26:54.281Z,1017.46
2018-05-27T04:27:54.278Z,1017.47
2018-05-27T04:28:54.279Z,1017.45
2018-05-27T04:29:54.278Z,1017.47
2018-05-27T04:30:54.284Z,1017.44
2018-05-27T04:31:54.278Z,1017.47
2018-05-27T04:32:54.278Z,1017.50
2018-05-27T04:33:54.275Z,1017.49
2018-05-27T04:34:54.278Z,1017.52
2018-05-27T04:35:54.277Z,1017.52
2018-05-27T04:36:54.277Z,1017.55
2018-05-27T04:37:54.282Z,1017.54
2018-05-27T04:38:54.278Z,1017.52
2018-05-27T04:39:54.277Z,1017.48
2018-05-27T04:40:54.277Z,1017.48
2018-05-27T04:41:54.277Z,1017.47
2018-05-27T04:42:54.281Z,1017.50
2018-05-27T04:43:54.278Z,1017.48
2018-05-27T04:44:54.278Z,1017.51
2018-05-27T04:45:54.279Z,1017.47
2018-05-27T04:46:54.278Z,1017.47
2018-05-27T04:47:54.278Z,1017.51
2018-05-27T04:48:54.276Z,1017.50
2018-05-27T04:49:54.284Z,1017.56
2018-05-27T04:50:54.282Z,1017.56
2018-05-27T04:51:54.285Z,1017.55
2018-05-27T04:52:54.282Z,1017.58
2018-05-27T04:53:54.282Z,1017.56
2018-05-27T04:54:54.283Z,1017.56
2018-05-27T04:55:54.283Z,1017.61
2018-05-27T04:56:54.292Z,1017.60
2018-05-27T04:57:54.280Z,1017.64
2018-05-27T04:58:54.290Z,1017.65
2018-05-27T04:59:54.286Z,1017.61
2018-05-27T05:00:54.291Z,1017.67
2018-05-27T05:01:54.292Z,1017.63
2018-05-27T05:02:54.291Z,1017.65
2018-05-27T05:03:54.286Z,1017.66
2018-05-27T05:04:54.290Z,1017.67
2018-05-27T05:05:54.288Z,1017.72
2018-05-27T05:06:54.296Z,1017.76
2018-05-27T05:07:54.293Z,1017.79
2018-05-27T05:08:54.298Z,1017.79
2018-05-27T05:09:54.296Z,1017.80
2018-05-27T05:10:54.298Z,1017.83
2018-05-27T05:11:54.302Z,1017.84
2018-05-27T05:12:54.295Z,1017.80
2018-05-27T05:13:54.301Z,1017.81
2018-05-27T05:14:54.342Z,1017.81
2018-05-27T05:15:54.303Z,1017.85
2018-05-27T05:16:54.306Z,1017.82
2018-05-27T05:17:54.307Z,1017.90
2018-05-27T05:18:54.307Z,1017.89
2018-05-27T05:19:54.308Z,1017.87
2018-05-27T05:20:54.311Z,1017.90
2018-05-27T05:21:54.311Z,1017.90
2018-05-27T05:22:54.311Z,1017.92
2018-05-27T05:23:54.314Z,1017.89
2018-05-27T05:24:54.325Z,1017.91
2018-05-27T05:25:54.316Z,1017.94
2018-05-27T05:26:54.319Z,1017.93
2018-05-27T05:27:54.319Z,1017.88
2018-05-27T05:28:54.322Z,1017.87
2018-05-27T05:29:54.325Z,1017.86
2018-05-27T05:30:54.324Z,1017.83
2018-05-27T05:31:54.325Z,1017.81
2018-05-27T05:32:54.331Z,1017.82
2018-05-27T05:33:54.329Z,1017.81
2018-05-27T05:34:54.330Z,1017.79
2018-05-27T05:35:54.331Z,1017.81
2018-05-27T05:36:54.336Z,1017.76
2018-05-27T05:37:54.339Z,1017.78
2018-05-27T05:38:54.337Z,1017.76
2018-05-27T05:39:54.342Z,1017.77
2018-05-27T05:40:54.341Z,1017.75
2018-05-27T05:41:54.345Z,1017.73
2018-05-27T05:42:54.343Z,1017.69
2018-05-27T05:43:54.348Z,1017.68
2018-05-27T05:44:54.346Z,1017.69
2018-05-27T05:45:54.346Z,1017.68
2018-05-27T05:46:54.352Z,1017.65
2018-05-27T05:47:54.350Z,1017.66
2018-05-27T05:48:54.356Z,1017.67
2018-05-27T05:49:54.360Z,1017.68
2018-05-27T05:50:54.360Z,1017.70
2018-05-27T05:51:54.364Z,1017.69
2018-05-27T05:52:54.365Z,1017.67
2018-05-27T05:53:54.370Z,1017.70
2018-05-27T05:54:54.372Z,1017.73
2018-05-27T05:55:54.373Z,1017.73
2018-05-27T05:56:54.377Z,1017.75
2018-05-27T05:57:54.376Z,1017.74
2018-05-27T05:58:54.385Z,1017.74
2018-05-27T05:59:54.385Z,1017.79
2018-05-27T06:00:54.390Z,1017.69
2018-05-27T06:01:54.388Z,1017.67
2018-05-27T06:02:54.393Z,1017.69
2018-05-27T06:03:54.397Z,1017.71
2018-05-27T06:04:54.403Z,1017.70
2018-05-27T06:05:54.405Z,1017.69
2018-05-27T06:06:54.408Z,1017.69
2018-05-27T06:07:54.409Z,1017.72
2018-05-27T06:08:54.412Z,1017.72
2018-05-27T06:09:54.412Z,1017.71
2018-05-27T06:10:54.418Z,1017.72
2018-05-27T06:11:54.421Z,1017.76
2018-05-27T06:12:54.428Z,1017.79
2018-05-27T06:13:54.432Z,1017.80
2018-05-27T06:14:54.436Z,1017.83
2018-05-27T06:15:54.434Z,1017.85
2018-05-27T06:16:54.444Z,1017.86
2018-05-27T06:17:54.451Z,1017.92
2018-05-27T06:18:54.447Z,1017.90
2018-05-27T06:19:54.449Z,1017.91
2018-05-27T06:20:54.450Z,1017.95
2018-05-27T06:21:54.456Z,1017.94
2018-05-27T06:22:54.462Z,1017.92
2018-05-27T06:23:54.462Z,1017.89
2018-05-27T06:24:54.464Z,1017.90
2018-05-27T06:25:54.469Z,1017.93
2018-05-27T06:26:54.475Z,1017.88
2018-05-27T06:27:54.478Z,1017.93
2018-05-27T06:28:54.486Z,1017.94
2018-05-27T06:29:54.489Z,1017.96
2018-05-27T06:30:54.491Z,1017.91
2018-05-27T06:31:54.493Z,1017.95
2018-05-27T06:32:54.498Z,1017.94
2018-05-27T06:33:54.506Z,1017.91
2018-05-27T06:34:54.505Z,1017.89
2018-05-27T06:35:54.510Z,1017.91
2018-05-27T06:36:54.514Z,1017.92
2018-05-27T06:37:54.516Z,1017.92
2018-05-27T06:38:54.518Z,1017.89
2018-05-27T06:39:54.530Z,1017.92
2018-05-27T06:40:54.533Z,1017.92
2018-05-27T06:41:54.531Z,1017.95
2018-05-27T06:42:54.536Z,1017.95
2018-05-27T06:43:54.543Z,1017.96
2018-05-27T06:44:54.547Z,1017.95
2018-05-27T06:45:54.552Z,1017.95
2018-05-27T06:46:54.556Z,1017.94
2018-05-27T06:47:54.559Z,1017.95
2018-05-27T06:48:54.565Z,1017.93
2018-05-27T06:49:54.569Z,1017.97
2018-05-27T06:50:54.577Z,1017.94
2018-05-27T06:51:54.579Z,1017.98
2018-05-27T06:52:54.584Z,1017.98
2018-05-27T06:53:54.591Z,1017.98
2018-05-27T06:54:54.595Z,1018.01
2018-05-27T06:55:54.601Z,1018.00
2018-05-27T06:56:54.605Z,1017.97
2018-05-27T06:57:54.612Z,1018.00
2018-05-27T06:58:54.616Z,1017.93
2018-05-27T06:59:54.621Z,1017.95
2018-05-27T07:00:54.626Z,1017.90
2018-05-27T07:01:54.639Z,1017.96
2018-05-27T07:02:54.638Z,1018.00
2018-05-27T07:03:54.643Z,1018.00
2018-05-27T07:04:54.665Z,1017.93
2018-05-27T07:05:54.655Z,1018.02
2018-05-27T07:06:54.661Z,1018.03
2018-05-27T07:07:54.665Z,1018.03
2018-05-27T07:08:54.671Z,1018.07
2018-05-27T07:09:54.677Z,1018.05
2018-05-27T07:10:54.684Z,1018.08
2018-05-27T07:11:54.686Z,1018.01
2018-05-27T07:12:54.700Z,1018.02
2018-05-27T07:13:54.696Z,1017.96
2018-05-27T07:14:54.731Z,1017.98
2018-05-27T07:15:54.707Z,1017.96
2018-05-27T07:16:54.709Z,1017.98
2018-05-27T07:17:54.712Z,1017.99
2018-05-27T07:18:54.722Z,1018.00
2018-05-27T07:19:54.723Z,1018.00
2018-05-27T07:20:54.731Z,1017.99
2018-05-27T07:21:54.737Z,1017.94
2018-05-27T07:22:54.747Z,1018.01
2018-05-27T07:23:54.752Z,1018.00
2018-05-27T07:24:54.778Z,1017.96
2018-05-27T07:25:54.759Z,1017.97
2018-05-27T07:26:54.803Z,1018.02
2018-05-27T07:27:54.770Z,1017.97
2018-05-27T07:28:54.810Z,1017.97
2018-05-27T07:29:54.781Z,1017.98
2018-05-27T07:30:54.785Z,1017.95
2018-05-27T07:31:54.792Z,1017.94
2018-05-27T07:32:54.834Z,1017.95
2018-05-27T07:33:54.803Z,1017.91
2018-05-27T07:34:54.836Z,1017.97
2018-05-27T07:35:54.833Z,1017.95
2018-05-27T07:36:54.823Z,1017.94
2018-05-27T07:37:54.827Z,1017.92
2018-05-27T07:38:54.833Z,1017.91
2018-05-27T07:39:54.871Z,1017.91
2018-05-27T07:40:54.845Z,1017.96
2018-05-27T07:41:54.894Z,1017.91
2018-05-27T07:42:54.861Z,1017.87
2018-05-27T07:43:54.873Z,1017.96
2018-05-27T07:44:54.874Z,1017.95
2018-05-27T07:45:54.889Z,1017.94
2018-05-27T07:46:54.887Z,1017.95
2018-05-27T07:47:54.893Z,1017.93
2018-05-27T07:48:54.905Z,1017.93
2018-05-27T07:49:54.905Z,1017.92
2018-05-27T07:50:54.916Z,1017.92
2018-05-27T07:51:54.922Z,1017.96
2018-05-27T07:52:54.929Z,1017.96
2018-05-27T07:53:54.937Z,1017.96
2018-05-27T07:54:54.996Z,1017.95
2018-05-27T07:55:54.952Z,1017.93
2018-05-27T07:56:54.961Z,1017.93
2018-05-27T07:57:54.964Z,1017.90
2018-05-27T07:58:54.980Z,1017.95
2018-05-27T07:59:54.986Z,1017.96
2018-05-27T08:00:54.993Z,1017.97
2018-05-27T08:01:55.008Z,1018.03
2018-05-27T08:02:55.017Z,1018.02
2018-05-27T08:03:55.037Z,1017.97
2018-05-27T08:04:55.037Z,1018.00
2018-05-27T08:05:55.033Z,1017.99
2018-05-27T08:06:55.042Z,1017.95
2018-05-27T08:07:55.049Z,1018.00
2018-05-27T08:08:55.056Z,1017.98
2018-05-27T08:09:55.068Z,1017.98
2018-05-27T08:10:55.087Z,1017.97
2018-05-27T08:11:55.087Z,1018.00
2018-05-27T08:12:55.123Z,1017.99
2018-05-27T08:13:55.102Z,1017.98
2018-05-27T08:14:55.116Z,1018.03
2018-05-27T08:15:55.123Z,1018.00
2018-05-27T08:16:55.137Z,1018.02
2018-05-27T08:17:55.141Z,1017.98
2018-05-27T08:18:55.155Z,1018.00
2018-05-27T08:19:55.222Z,1018.03
2018-05-27T08:20:55.171Z,1018.00
2018-05-27T08:21:55.180Z,1018.03
2018-05-27T08:22:55.190Z,1018.05
2018-05-27T08:23:55.199Z,1018.05
2018-05-27T08:24:55.211Z,1018.00
2018-05-27T08:25:55.275Z,1018.06
2018-05-27T08:26:55.227Z,1018.01
2018-05-27T08:27:55.240Z,1018.05
2018-05-27T08:28:55.251Z,1018.03
2018-05-27T08:29:55.259Z,1018.03
2018-05-27T08:30:55.270Z,1018.05
2018-05-27T08:31:55.280Z,1018.06
2018-05-27T08:32:55.337Z,1018.10
2018-05-27T08:33:55.309Z,1018.13
2018-05-27T08:34:55.312Z,1018.08
2018-05-27T08:35:55.322Z,1018.09
2018-05-27T08:36:55.333Z,1018.12
2018-05-27T08:37:55.344Z,1018.17
2018-05-27T08:38:55.357Z,1018.17
2018-05-27T08:39:55.364Z,1018.18
2018-05-27T08:40:55.381Z,1018.15
2018-05-27T08:41:55.388Z,1018.15
2018-05-27T08:42:55.397Z,1018.13
2018-05-27T08:43:55.455Z,1018.09
2018-05-27T08:44:55.421Z,1018.12
2018-05-27T08:45:55.449Z,1018.15
2018-05-27T08:46:55.462Z,1018.14
2018-05-27T08:47:55.453Z,1018.17
2018-05-27T08:48:55.468Z,1018.17
2018-05-27T08:49:55.475Z,1018.17
2018-05-27T08:50:55.491Z,1018.16
2018-05-27T08:51:55.524Z,1018.19
2018-05-27T08:52:55.512Z,1018.19
2018-05-27T08:53:55.532Z,1018.19
2018-05-27T08:54:55.537Z,1018.14
2018-05-27T08:55:55.576Z,1018.09
2018-05-27T08:56:55.555Z,1018.04
2018-05-27T08:57:55.564Z,1018.08
2018-05-27T08:58:55.637Z,1018.02
2018-05-27T08:59:55.589Z,1017.98
2018-05-27T09:00:55.596Z,1017.97
2018-05-27T09:01:55.616Z,1017.97
2018-05-27T09:02:55.622Z,1017.99
2018-05-27T09:03:55.632Z,1017.94
2018-05-27T09:04:55.637Z,1018.01
2018-05-27T09:05:55.652Z,1017.98
2018-05-27T09:06:55.753Z,1017.99
2018-05-27T09:07:55.691Z,1017.95
2018-05-27T09:08:55.713Z,1017.98
2018-05-27T09:09:55.689Z,1017.97
2018-05-27T09:10:55.692Z,1017.94
2018-05-27T09:11:55.702Z,1017.94
2018-05-27T09:12:55.713Z,1017.94
2018-05-27T09:13:55.723Z,1017.87
2018-05-27T09:14:55.727Z,1017.91
2018-05-27T09:15:55.733Z,1017.92
2018-05-27T09:16:55.744Z,1017.85
2018-05-27T09:17:55.752Z,1017.86
2018-05-27T09:18:55.759Z,1017.87
2018-05-27T09:19:55.832Z,1017.85
2018-05-27T09:20:55.786Z,1017.84
2018-05-27T09:21:55.781Z,1017.87
2018-05-27T09:22:55.785Z,1017.83
2018-05-27T09:23:55.796Z,1017.85
2018-05-27T09:24:55.869Z,1017.85
2018-05-27T09:25:55.805Z,1017.85
2018-05-27T09:26:55.816Z,1017.82
2018-05-27T09:27:55.823Z,1017.87
2018-05-27T09:28:55.835Z,1017.79
2018-05-27T09:29:55.837Z,1017.83
2018-05-27T09:30:55.883Z,1017.80
2018-05-27T09:31:55.852Z,1017.83
2018-05-27T09:32:55.860Z,1017.82
2018-05-27T09:33:55.862Z,1017.79
2018-05-27T09:34:55.868Z,1017.79
2018-05-27T09:35:55.875Z,1017.80
2018-05-27T09:36:55.881Z,1017.77
2018-05-27T09:37:55.888Z,1017.77
2018-05-27T09:38:55.895Z,1017.73
2018-05-27T09:39:55.894Z,1017.74
2018-05-27T09:40:55.905Z,1017.73
2018-05-27T09:41:55.911Z,1017.74
2018-05-27T09:42:55.917Z,1017.68
2018-05-27T09:43:55.923Z,1017.69
2018-05-27T09:44:55.930Z,1017.67
2018-05-27T09:45:55.936Z,1017.66
2018-05-27T09:46:55.941Z,1017.68
2018-05-27T09:47:55.946Z,1017.64
2018-05-27T09:48:55.952Z,1017.68
2018-05-27T09:49:55.960Z,1017.63
2018-05-27T09:50:55.967Z,1017.67
2018-05-27T09:51:55.970Z,1017.67
2018-05-27T09:52:55.977Z,1017.70
2018-05-27T09:53:55.979Z,1017.68
2018-05-27T09:54:55.989Z,1017.67
2018-05-27T09:55:55.994Z,1017.63
2018-05-27T09:56:56.001Z,1017.66
2018-05-27T09:57:56.050Z,1017.65
2018-05-27T09:58:56.051Z,1017.68
2018-05-27T09:59:56.070Z,1017.64
2018-05-27T10:00:56.020Z,1017.62
2018-05-27T10:01:56.031Z,1017.66
2018-05-27T10:02:56.037Z,1017.65
2018-05-27T10:03:56.039Z,1017.65
2018-05-27T10:04:56.045Z,1017.63
2018-05-27T10:05:56.052Z,1017.64
2018-05-27T10:06:56.060Z,1017.58
2018-05-27T10:07:56.067Z,1017.59
2018-05-27T10:08:56.071Z,1017.57
2018-05-27T10:09:56.076Z,1017.60
2018-05-27T10:10:56.082Z,1017.54
2018-05-27T10:11:56.087Z,1017.55
2018-05-27T10:12:56.098Z,1017.52
2018-05-27T10:13:56.099Z,1017.53
2018-05-27T10:14:56.113Z,1017.53
2018-05-27T10:15:56.111Z,1017.52
2018-05-27T10:16:56.118Z,1017.50
2018-05-27T10:17:56.125Z,1017.49
2018-05-27T10:18:56.161Z,1017.44
2018-05-27T10:19:56.140Z,1017.52
2018-05-27T10:20:56.147Z,1017.46
2018-05-27T10:21:56.152Z,1017.45
2018-05-27T10:22:56.157Z,1017.44
2018-05-27T10:23:56.173Z,1017.46
2018-05-27T10:24:56.171Z,1017.43
2018-05-27T10:25:56.241Z,1017.47
2018-05-27T10:26:56.183Z,1017.50
2018-05-27T10:27:56.186Z,1017.47
2018-05-27T10:28:56.190Z,1017.48
2018-05-27T10:29:56.198Z,1017.42
2018-05-27T10:30:56.207Z,1017.43
2018-05-27T10:31:56.207Z,1017.48
2018-05-27T10:32:56.212Z,1017.46
2018-05-27T10:33:56.219Z,1017.43
2018-05-27T10:34:56.225Z,1017.46
2018-05-27T10:35:56.229Z,1017.41
2018-05-27T10:36:56.233Z,1017.45
2018-05-27T10:37:56.239Z,1017.38
2018-05-27T10:38:56.245Z,1017.37
2018-05-27T10:39:56.264Z,1017.40
2018-05-27T10:40:56.260Z,1017.38
2018-05-27T10:41:56.265Z,1017.37
2018-05-27T10:42:56.272Z,1017.34
2018-05-27T10:43:56.277Z,1017.36
2018-05-27T10:44:56.283Z,1017.40
2018-05-27T10:45:56.292Z,1017.38
2018-05-27T10:46:56.294Z,1017.37
2018-05-27T10:47:56.298Z,1017.35
2018-05-27T10:48:56.304Z,1017.37
2018-05-27T10:49:56.310Z,1017.34
2018-05-27T10:50:56.320Z,1017.32
2018-05-27T10:51:56.321Z,1017.30
2018-05-27T10:52:56.327Z,1017.31
2018-05-27T10:53:56.334Z,1017.29
2018-05-27T10:54:56.341Z,1017.24
2018-05-27T10:55:56.344Z,1017.22
2018-05-27T10:56:56.351Z,1017.22
2018-05-27T10:57:56.358Z,1017.23
2018-05-27T10:58:56.364Z,1017.26
2018-05-27T10:59:56.466Z,1017.27
2018-05-27T11:00:56.376Z,1017.21
2018-05-27T11:01:56.382Z,1017.25
2018-05-27T11:02:56.382Z,1017.25
2018-05-27T11:03:56.389Z,1017.22
2018-05-27T11:04:56.397Z,1017.20
2018-05-27T11:05:56.438Z,1017.18
2018-05-27T11:06:56.415Z,1017.20
2018-05-27T11:07:56.413Z,1017.17
2018-05-27T11:08:56.421Z,1017.20
2018-05-27T11:09:56.427Z,1017.18
2018-05-27T11:10:56.434Z,1017.17
2018-05-27T11:11:56.440Z,1017.17
2018-05-27T11:12:56.446Z,1017.18
2018-05-27T11:13:56.454Z,1017.11
2018-05-27T11:14:56.460Z,1017.10
2018-05-27T11:15:56.464Z,1017.13
2018-05-27T11:16:56.474Z,1017.14
2018-05-27T11:17:56.481Z,1017.11
2018-05-27T11:18:56.483Z,1017.10
2018-05-27T11:19:56.489Z,1017.10
2018-05-27T11:20:56.496Z,1017.00
2018-05-27T11:21:56.502Z,1017.01
2018-05-27T11:22:56.504Z,1017.01
2018-05-27T11:23:56.517Z,1017.04
2018-05-27T11:24:56.520Z,1017.00
2018-05-27T11:25:56.528Z,1017.01
2018-05-27T11:26:56.535Z,1016.99
2018-05-27T11:27:56.544Z,1016.97
2018-05-27T11:28:56.544Z,1016.92
2018-05-27T11:29:56.601Z,1016.96
2018-05-27T11:30:56.558Z,1016.93
2018-05-27T11:31:56.561Z,1016.91
2018-05-27T11:32:56.569Z,1016.86
2018-05-27T11:33:56.574Z,1016.91
2018-05-27T11:34:56.580Z,1016.87
2018-05-27T11:35:56.586Z,1016.89
2018-05-27T11:36:56.648Z,1016.88
2018-05-27T11:37:56.600Z,1016.85
2018-05-27T11:38:56.605Z,1016.84
2018-05-27T11:39:56.610Z,1016.84
2018-05-27T11:40:56.617Z,1016.81
2018-05-27T11:41:56.627Z,1016.80
2018-05-27T11:42:56.631Z,1016.77
2018-05-27T11:43:56.635Z,1016.74
2018-05-27T11:44:56.640Z,1016.77
2018-05-27T11:45:56.648Z,1016.72
2018-05-27T11:46:56.655Z,1016.72
2018-05-27T11:47:56.662Z,1016.68
2018-05-27T11:48:56.668Z,1016.69
2018-05-27T11:49:56.674Z,1016.70
2018-05-27T11:50:56.680Z,1016.62
2018-05-27T11:51:56.686Z,1016.56
2018-05-27T11:52:56.693Z,1016.57
2018-05-27T11:53:56.702Z,1016.55
2018-05-27T11:54:56.706Z,1016.53
2018-05-27T11:55:56.709Z,1016.48
2018-05-27T11:56:56.719Z,1016.52
2018-05-27T11:57:56.726Z,1016.49
2018-05-27T11:58:56.729Z,1016.50
2018-05-27T11:59:56.740Z,1016.45
2018-05-27T12:00:56.742Z,1016.43
2018-05-27T12:01:56.756Z,1016.45
2018-05-27T12:02:56.751Z,1016.45
2018-05-27T12:03:56.760Z,1016.42
2018-05-27T12:04:56.767Z,1016.40
2018-05-27T12:05:56.773Z,1016.39